Time;durP1;ratioP1;P1;durP2;ratioP2;P2;SDS_P1;SDS_P2;PMS_P1;PMS_P2;Temp;Humidity;BMP_temperature;BMP_pressure;BME280_temperature;BME280_humidity;BME280_pressure;Samples;Min_cycle;Max_cycle;Signal;HPM_P1;HPM_P2
2022/04/10 00:01:17;;;;;;;8.18;2.83;;;;;;;4.46;74.99;100846.63;5067892;28;20044;-72
2022/04/10 00:03:43;;;;;;;14.15;3.20;;;;;;;4.32;75.96;100856.50;5068130;28;20204;-72
2022/04/10 00:06:09;;;;;;;5.53;2.92;;;;;;;4.38;75.65;100845.97;5068542;28;20052;-72
2022/04/10 00:08:36;;;;;;;7.80;3.45;;;;;;;4.19;76.24;100855.09;5068695;28;20466;-72
2022/04/10 00:11:03;;;;;;;4.93;3.13;;;;;;;4.24;76.64;100855.84;5068301;28;20071;-72
2022/04/10 00:13:29;;;;;;;11.00;4.00;;;;;;;4.05;76.73;100841.59;5068201;28;20102;-72
2022/04/10 00:15:55;;;;;;;7.55;3.22;;;;;;;4.39;75.93;100856.34;5068159;28;20044;-72
2022/04/10 00:18:23;;;;;;;8.98;3.20;;;;;;;4.46;75.14;100853.56;5067367;28;20044;-72
2022/04/10 00:20:50;;;;;;;6.95;3.20;;;;;;;4.37;75.41;100846.84;5068185;28;20040;-72
2022/04/10 00:23:16;;;;;;;5.53;2.72;;;;;;;4.45;75.13;100857.91;5068256;28;20045;-72
2022/04/10 00:25:42;;;;;;;6.93;3.35;;;;;;;4.13;75.95;100853.50;5066630;28;20082;-72
2022/04/10 00:28:09;;;;;;;8.38;3.35;;;;;;;4.17;75.91;100854.28;5068832;28;20044;-72
2022/04/10 00:30:35;;;;;;;8.52;2.80;;;;;;;4.34;75.44;100857.31;5067064;28;20049;-72
2022/04/10 00:33:01;;;;;;;5.95;3.05;;;;;;;4.17;75.85;100847.34;5067801;28;20136;-72
2022/04/10 00:35:29;;;;;;;4.22;2.92;;;;;;;4.20;75.78;100859.41;5067160;28;20045;-72
2022/04/10 00:37:56;;;;;;;8.05;2.55;;;;;;;3.97;76.77;100864.25;5068370;28;20089;-72
2022/04/10 00:40:22;;;;;;;7.75;2.83;;;;;;;4.29;75.37;100859.16;5067780;28;20416;-72
2022/04/10 00:42:50;;;;;;;4.63;2.38;;;;;;;4.36;74.75;100852.97;5067689;28;20459;-72
2022/04/10 00:45:17;;;;;;;6.30;2.65;;;;;;;4.50;74.31;100848.28;5068116;28;20048;-72
2022/04/10 00:47:45;;;;;;;4.70;2.08;;;;;;;4.72;73.51;100846.84;5067514;28;20045;-72
2022/04/10 00:50:13;;;;;;;5.88;2.55;;;;;;;4.43;74.54;100857.94;5067482;28;20471;-72
2022/04/10 00:52:42;;;;;;;6.85;2.88;;;;;;;4.67;73.64;100848.69;5067436;28;20064;-72
2022/04/10 00:55:09;;;;;;;6.75;2.45;;;;;;;4.60;73.69;100856.66;5066519;28;20052;-72
2022/04/10 00:57:36;;;;;;;7.13;2.60;;;;;;;4.59;73.60;100861.00;5067169;28;20044;-72
2022/04/10 01:00:04;;;;;;;3.95;2.28;;;;;;;4.64;73.46;100853.97;5081770;28;20044;-72
2022/04/10 01:02:30;;;;;;;6.63;2.47;;;;;;;4.22;75.33;100852.41;5072420;28;20094;-73
2022/04/10 01:04:57;;;;;;;5.68;2.55;;;;;;;4.12;75.76;100858.72;5067358;28;20475;-72
2022/04/10 01:07:23;;;;;;;6.72;2.83;;;;;;;4.01;75.85;100855.50;5067382;28;20072;-72
2022/04/10 01:09:51;;;;;;;5.80;2.30;;;;;;;4.11;75.89;100854.41;5064801;28;20443;-72
2022/04/10 01:12:17;;;;;;;4.05;2.33;;;;;;;4.30;75.44;100855.69;5066905;28;20074;-72
2022/04/10 01:14:44;;;;;;;5.78;1.85;;;;;;;4.34;74.88;100855.56;5066530;28;20060;-72
2022/04/10 01:17:11;;;;;;;7.05;1.75;;;;;;;4.02;76.16;100854.63;5067357;28;20471;-72
2022/04/10 01:19:39;;;;;;;5.80;2.63;;;;;;;4.17;75.67;100854.28;5066692;28;20117;-72
2022/04/10 01:22:07;;;;;;;6.40;2.55;;;;;;;4.06;75.77;100861.47;5067649;28;20049;-72
2022/04/10 01:24:36;;;;;;;7.65;2.38;;;;;;;4.29;75.05;100859.16;5066956;28;20404;-72
2022/04/10 01:27:03;;;;;;;4.20;2.20;;;;;;;4.44;73.98;100858.78;5065562;28;20044;-72
2022/04/10 01:29:30;;;;;;;7.30;2.42;;;;;;;4.43;74.48;100862.28;5066841;28;20524;-72
2022/04/10 01:31:57;;;;;;;6.95;2.38;;;;;;;4.29;74.74;100866.94;5067258;28;20048;-72
2022/04/10 01:34:23;;;;;;;11.57;2.83;;;;;;;4.10;76.04;100863.94;5066992;28;20102;-72
2022/04/10 01:36:50;;;;;;;4.07;2.13;;;;;;;4.25;75.18;100865.34;5066879;28;20481;-72
2022/04/10 01:39:17;;;;;;;4.45;2.65;;;;;;;4.00;76.51;100867.63;5066171;28;20044;-72
2022/04/10 01:41:46;;;;;;;7.20;2.22;;;;;;;3.92;76.97;100869.53;5067062;28;20550;-72
2022/04/10 01:44:13;;;;;;;6.18;2.17;;;;;;;4.17;76.09;100869.84;5067153;28;20078;-72
2022/04/10 01:46:39;;;;;;;6.28;2.45;;;;;;;4.38;74.88;100877.13;5066523;28;20040;-72
2022/04/10 01:49:07;;;;;;;7.65;2.05;;;;;;;4.50;74.27;100878.56;5066031;28;20063;-72
2022/04/10 01:51:34;;;;;;;7.13;2.63;;;;;;;4.52;74.23;100879.38;5066100;28;20052;-72
2022/04/10 01:54:00;;;;;;;7.15;2.65;;;;;;;4.31;75.08;100883.34;5066934;28;20044;-72
2022/04/10 01:56:27;;;;;;;5.20;1.52;;;;;;;4.20;75.32;100877.56;5066048;28;20542;-72
2022/04/10 01:58:54;;;;;;;6.65;2.80;;;;;;;4.10;75.62;100873.47;5067734;28;20044;-72
2022/04/10 02:01:22;;;;;;;7.15;1.98;;;;;;;4.09;75.57;100883.00;5067020;28;20492;-72
2022/04/10 02:03:50;;;;;;;9.43;3.55;;;;;;;4.32;75.16;100885.06;5066466;28;20072;-72
2022/04/10 02:06:17;;;;;;;5.72;2.47;;;;;;;4.52;74.33;100875.03;5067461;28;20068;-72
2022/04/10 02:08:44;;;;;;;8.55;2.47;;;;;;;4.28;74.80;100879.09;5066569;28;20488;-72
2022/04/10 02:11:11;;;;;;;12.30;2.10;;;;;;;4.16;75.27;100881.13;5065845;28;20049;-71
2022/04/10 02:13:38;;;;;;;13.50;3.45;;;;;;;4.30;74.79;100889.44;5066462;28;20068;-74
2022/04/10 02:16:06;;;;;;;6.20;2.08;;;;;;;4.31;74.65;100886.81;5066924;28;20045;-74
2022/04/10 02:18:32;;;;;;;11.18;2.55;;;;;;;4.49;74.08;100885.50;5067211;28;20496;-73
2022/04/10 02:20:59;;;;;;;6.00;3.00;;;;;;;4.52;73.91;100876.78;5066556;28;20044;-73
2022/04/10 02:23:25;;;;;;;12.77;2.55;;;;;;;4.64;73.27;100884.28;5066894;28;20048;-73
2022/04/10 02:25:52;;;;;;;7.05;2.72;;;;;;;4.23;74.50;100883.53;5067627;28;20040;-73
2022/04/10 02:28:18;;;;;;;7.50;3.25;;;;;;;4.16;74.81;100878.50;5067005;28;20105;-73
2022/04/10 02:30:44;;;;;;;10.35;3.03;;;;;;;4.16;75.42;100884.56;5065967;28;20048;-73
2022/04/10 02:33:12;;;;;;;8.20;3.33;;;;;;;4.13;75.51;100897.63;5066379;28;20060;-73
2022/04/10 02:35:40;;;;;;;6.68;3.38;;;;;;;4.22;75.49;100893.94;5067392;28;20105;-73
2022/04/10 02:38:07;;;;;;;7.05;3.40;;;;;;;4.14;75.75;100883.72;5066510;28;20044;-73
2022/04/10 02:40:33;;;;;;;8.95;3.53;;;;;;;4.11;76.04;100883.81;5065251;28;20044;-73
2022/04/10 02:42:59;;;;;;;7.88;3.28;;;;;;;4.18;76.02;100897.50;5070058;28;20040;-73
2022/04/10 02:45:26;;;;;;;7.00;3.03;;;;;;;4.43;74.82;100895.19;5071160;28;20098;-73
2022/04/10 02:47:52;;;;;;;6.70;3.22;;;;;;;4.24;75.28;100880.06;5070291;28;20102;-73
2022/04/10 02:50:20;;;;;;;11.25;4.25;;;;;;;4.43;74.66;100890.00;5069497;28;20044;-73
2022/04/10 02:52:48;;;;;;;6.35;3.40;;;;;;;4.18;75.35;100889.69;5070139;28;20048;-73
2022/04/10 02:55:15;;;;;;;8.98;3.42;;;;;;;4.37;74.88;100888.38;5070590;28;20044;-73
2022/04/10 02:57:41;;;;;;;9.82;3.78;;;;;;;4.33;74.95;100895.41;5070362;28;20044;-73
2022/04/10 03:00:09;;;;;;;13.57;3.55;;;;;;;4.40;74.53;100890.91;5069477;28;20055;-73
2022/04/10 03:02:35;;;;;;;10.10;3.22;;;;;;;4.60;73.38;100883.50;5070231;28;20040;-73
2022/04/10 03:05:02;;;;;;;12.18;4.10;;;;;;;4.34;74.65;100896.25;5073825;28;20048;-73
2022/04/10 03:07:30;;;;;;;11.63;3.78;;;;;;;4.40;74.53;100889.16;5070178;28;20082;-73
2022/04/10 03:09:56;;;;;;;11.50;4.13;;;;;;;4.33;74.75;100897.13;5069746;28;20048;-73
2022/04/10 03:12:22;;;;;;;10.35;4.60;;;;;;;4.16;75.03;100901.88;5070554;28;20121;-73
2022/04/10 03:14:49;;;;;;;10.02;3.97;;;;;;;4.30;75.40;100895.47;5069923;28;20117;-73
2022/04/10 03:17:15;;;;;;;9.60;4.00;;;;;;;4.47;74.54;100899.41;5069747;28;21121;-73
2022/04/10 03:19:41;;;;;;;7.28;3.47;;;;;;;4.66;73.65;100898.06;5068950;28;20040;-73
2022/04/10 03:22:08;;;;;;;11.07;3.70;;;;;;;4.62;73.49;100906.84;5069966;28;20060;-73
2022/04/10 03:24:35;;;;;;;13.05;4.00;;;;;;;4.24;74.71;100902.56;5069552;28;20044;-73
2022/04/10 03:27:02;;;;;;;9.35;3.65;;;;;;;4.46;74.36;100908.94;5069013;28;20044;-73
2022/04/10 03:29:28;;;;;;;8.57;3.75;;;;;;;4.48;74.28;100911.50;5069702;28;20044;-73
2022/04/10 03:31:54;;;;;;;8.73;3.35;;;;;;;4.53;73.92;100907.06;5069710;28;20090;-73
2022/04/10 03:34:21;;;;;;;7.90;3.90;;;;;;;4.67;73.48;100911.00;5068201;28;20060;-73
2022/04/10 03:36:47;;;;;;;9.65;3.08;;;;;;;4.89;72.76;100907.00;5069098;28;20048;-73
2022/04/10 03:39:13;;;;;;;9.55;4.47;;;;;;;4.74;73.21;100917.75;5069376;28;20048;-72
2022/04/10 03:41:41;;;;;;;13.85;4.05;;;;;;;4.42;74.47;100912.50;5070007;28;20067;-72
2022/04/10 03:44:08;;;;;;;11.25;4.63;;;;;;;4.55;73.47;100910.44;5070971;28;20052;-72
2022/04/10 03:46:34;;;;;;;15.10;4.82;;;;;;;4.70;73.32;100915.28;5071007;28;20045;-72
2022/04/10 03:49:00;;;;;;;9.95;4.20;;;;;;;4.65;73.87;100919.75;5077610;28;20045;-72
2022/04/10 03:51:27;;;;;;;8.05;3.47;;;;;;;4.57;73.57;100909.53;5094557;28;20048;-72
2022/04/10 03:53:53;;;;;;;6.85;3.60;;;;;;;4.60;73.70;100916.41;5086107;28;20067;-72
2022/04/10 03:56:19;;;;;;;13.80;4.03;;;;;;;4.34;74.21;100906.63;5086147;28;20040;-72
2022/04/10 03:58:47;;;;;;;11.27;4.10;;;;;;;4.53;73.36;100917.44;5085887;28;20051;-72
2022/04/10 04:01:13;;;;;;;11.93;3.28;;;;;;;4.28;74.21;100933.59;5084324;28;20048;-72
2022/04/10 04:03:40;;;;;;;4.93;2.40;;;;;;;4.10;74.83;100931.41;5081806;28;20146;-72
2022/04/10 04:06:06;;;;;;;8.18;3.95;;;;;;;4.51;73.74;100933.03;5084672;28;20044;-72
2022/04/10 04:08:33;;;;;;;13.80;3.58;;;;;;;4.55;73.21;100936.41;5079179;28;20056;-72
2022/04/10 04:10:59;;;;;;;9.90;3.50;;;;;;;4.46;73.60;100947.91;5068981;28;20036;-72
2022/04/10 04:13:26;;;;;;;6.63;3.42;;;;;;;4.48;73.09;100950.44;5069960;28;20507;-72
2022/04/10 04:15:53;;;;;;;12.20;3.47;;;;;;;4.43;73.17;100953.16;5069269;28;20442;-72
2022/04/10 04:18:20;;;;;;;10.85;3.30;;;;;;;4.27;74.25;100949.19;5068905;28;20044;-72
2022/04/10 04:20:46;;;;;;;19.33;4.05;;;;;;;4.26;74.37;100950.06;5068185;28;20056;-73
2022/04/10 04:23:15;;;;;;;14.25;4.20;;;;;;;4.39;74.46;100961.91;5068497;28;20036;-72
2022/04/10 04:25:41;;;;;;;8.73;3.53;;;;;;;4.58;73.92;100963.16;5068432;28;20127;-73
2022/04/10 04:28:08;;;;;;;7.38;2.58;;;;;;;4.64;73.55;100967.38;5068126;28;20052;-73
2022/04/10 04:30:34;;;;;;;5.97;3.10;;;;;;;4.80;73.38;100966.13;5061197;28;20306;-73
2022/04/10 04:33:03;;;;;;;6.47;3.38;;;;;;;5.07;72.09;100968.03;5066212;28;20048;-73
2022/04/10 04:35:29;;;;;;;10.95;4.40;;;;;;;5.31;71.28;100976.94;5067910;28;20065;-74
2022/04/10 04:37:56;;;;;;;12.32;4.35;;;;;;;5.45;70.64;100974.81;5068633;28;20697;-74
2022/04/10 04:40:22;;;;;;;11.00;4.03;;;;;;;5.53;70.91;100980.69;5067621;28;20044;-74
2022/04/10 04:42:48;;;;;;;14.35;4.03;;;;;;;5.53;70.27;100988.47;5060230;28;20093;-74
2022/04/10 04:45:16;;;;;;;10.70;3.42;;;;;;;4.96;72.34;101000.34;5067767;28;20040;-74
2022/04/10 04:47:43;;;;;;;20.27;4.68;;;;;;;4.88;73.01;101000.53;5067965;28;20041;-73
2022/04/10 04:50:11;;;;;;;14.45;3.65;;;;;;;5.17;71.95;100995.50;5067768;28;20617;-73
2022/04/10 04:52:38;;;;;;;10.70;3.55;;;;;;;5.05;72.20;100998.41;5067904;28;20045;-73
2022/04/10 04:55:05;;;;;;;13.88;3.92;;;;;;;5.18;71.85;101001.53;5067841;28;20048;-73
2022/04/10 04:57:32;;;;;;;20.00;3.47;;;;;;;5.47;71.12;101004.22;5066283;28;20052;-73
2022/04/10 04:59:58;;;;;;;6.43;2.95;;;;;;;5.47;70.67;101003.41;5067577;28;20492;-73
2022/04/10 05:02:24;;;;;;;11.88;3.72;;;;;;;5.30;71.42;101004.69;5068049;28;20428;-73
2022/04/10 05:04:51;;;;;;;7.05;3.20;;;;;;;5.31;71.47;101013.34;5067303;28;20118;-74
2022/04/10 05:07:18;;;;;;;9.07;3.97;;;;;;;5.32;71.41;101010.69;5065953;28;20106;-73
2022/04/10 05:09:45;;;;;;;10.25;3.58;;;;;;;5.36;71.52;101016.66;5065194;28;20493;-73
2022/04/10 05:12:11;;;;;;;6.57;3.17;;;;;;;5.29;71.71;101023.78;5061985;28;20052;-73
2022/04/10 05:14:37;;;;;;;11.60;3.25;;;;;;;5.22;72.26;101023.97;5066002;28;20570;-73
2022/04/10 05:17:04;;;;;;;9.50;3.60;;;;;;;5.20;72.48;101021.41;5051191;28;20045;-74
2022/04/10 05:19:31;;;;;;;6.82;3.50;;;;;;;5.28;72.28;101027.25;5060901;28;20044;-74
2022/04/10 05:21:57;;;;;;;12.50;3.65;;;;;;;5.21;72.40;101030.06;5066562;28;20074;-74
2022/04/10 05:24:25;;;;;;;11.23;3.45;;;;;;;5.11;72.92;101029.44;5068006;28;20044;-73
2022/04/10 05:26:51;;;;;;;8.23;3.42;;;;;;;5.14;72.47;101036.28;5065210;28;20045;-73
2022/04/10 05:29:17;;;;;;;19.00;4.60;;;;;;;4.89;73.48;101039.50;5066228;28;20048;-73
2022/04/10 05:31:44;;;;;;;11.75;3.95;;;;;;;5.23;72.58;101041.28;5059661;28;20543;-73
2022/04/10 05:34:10;;;;;;;11.40;3.72;;;;;;;5.20;72.71;101042.22;5055491;28;20080;-73
2022/04/10 05:36:37;;;;;;;16.85;3.95;;;;;;;5.46;72.36;101051.09;5067009;28;20075;-74
2022/04/10 05:39:03;;;;;;;10.57;3.22;;;;;;;5.29;72.41;101046.31;5062420;28;20044;-74
2022/04/10 05:41:31;;;;;;;13.00;4.00;;;;;;;5.69;71.72;101053.97;5065700;28;20044;-74
2022/04/10 05:43:57;;;;;;;14.57;4.03;;;;;;;5.69;71.61;101052.19;5067088;28;20098;-74
2022/04/10 05:46:25;;;;;;;14.02;3.90;;;;;;;5.40;72.70;101052.94;5067434;28;20090;-74
2022/04/10 05:48:52;;;;;;;10.55;3.53;;;;;;;5.38;72.61;101059.94;5064173;28;20068;-74
2022/04/10 05:51:18;;;;;;;18.42;4.60;;;;;;;5.34;72.98;101058.31;5065262;28;20048;-74
2022/04/10 05:53:44;;;;;;;10.50;2.95;;;;;;;5.42;72.40;101068.53;5066087;28;20044;-75
2022/04/10 05:56:11;;;;;;;12.27;3.58;;;;;;;5.53;71.89;101066.50;5065233;28;20048;-74
2022/04/10 05:58:38;;;;;;;8.52;3.40;;;;;;;5.83;70.33;101062.25;5067069;28;20079;-74
2022/04/10 06:01:05;;;;;;;9.13;3.30;;;;;;;5.53;70.86;101076.06;5065433;28;20519;-74
2022/04/10 06:03:31;;;;;;;8.80;3.03;;;;;;;5.56;70.64;101073.38;5064914;28;20125;-74
2022/04/10 06:05:58;;;;;;;12.18;3.28;;;;;;;5.63;70.79;101075.78;5065465;28;20052;-74
2022/04/10 06:08:25;;;;;;;11.32;3.10;;;;;;;6.39;68.22;101081.53;5066596;28;20052;-74
2022/04/10 06:10:51;;;;;;;10.85;2.65;;;;;;;6.37;67.84;101083.31;5065190;28;20409;-74
2022/04/10 06:13:17;;;;;;;9.80;2.50;;;;;;;5.80;69.01;101081.38;5066480;28;20106;-74
2022/04/10 06:15:45;;;;;;;8.88;2.85;;;;;;;5.98;69.52;101089.63;5055830;28;20094;-74
2022/04/10 06:18:12;;;;;;;10.90;3.40;;;;;;;6.10;68.70;101097.94;5064701;28;20044;-74
2022/04/10 06:20:38;;;;;;;13.00;3.65;;;;;;;5.74;69.63;101097.16;5068937;28;20052;-74
2022/04/10 06:23:05;;;;;;;15.15;3.38;;;;;;;5.93;69.24;101094.09;5069485;28;20593;-74
2022/04/10 06:25:32;;;;;;;8.30;3.70;;;;;;;6.12;68.80;101100.53;5070201;28;20433;-74
2022/04/10 06:27:59;;;;;;;9.30;2.92;;;;;;;6.19;68.60;101094.25;5069251;28;20423;-74
2022/04/10 06:30:25;;;;;;;13.30;2.83;;;;;;;6.04;68.60;101100.72;5069479;28;20496;-74
2022/04/10 06:32:53;;;;;;;15.43;3.10;;;;;;;6.01;69.05;101099.97;5067682;28;20048;-74
2022/04/10 06:35:19;;;;;;;9.60;2.95;;;;;;;6.39;67.62;101102.34;5063202;28;20045;-73
2022/04/10 06:37:45;;;;;;;12.13;3.38;;;;;;;6.97;65.22;101098.00;5053613;28;20131;-73
2022/04/10 06:40:12;;;;;;;9.90;3.63;;;;;;;8.09;62.93;101102.06;5068118;28;20513;-74
2022/04/10 06:42:39;;;;;;;9.15;3.15;;;;;;;8.08;61.93;101098.59;5067766;28;20102;-74
2022/04/10 06:45:07;;;;;;;6.85;2.60;;;;;;;7.99;62.17;101105.88;5068359;28;20443;-74
2022/04/10 06:47:33;;;;;;;10.88;2.97;;;;;;;7.76;61.83;101110.13;5069517;28;20455;-73
2022/04/10 06:50:01;;;;;;;10.63;2.90;;;;;;;7.66;62.42;101106.13;5069241;28;20049;-73
2022/04/10 06:52:27;;;;;;;7.50;2.75;;;;;;;7.12;63.65;101107.94;5070117;28;20048;-73
2022/04/10 06:54:54;;;;;;;12.57;3.55;;;;;;;6.76;65.14;101118.59;5068694;28;20064;-73
2022/04/10 06:57:20;;;;;;;12.40;2.92;;;;;;;6.55;65.43;101114.03;5069126;28;20060;-73
2022/04/10 06:59:46;;;;;;;8.35;3.10;;;;;;;6.34;66.57;101117.25;5068661;28;20044;-73
2022/04/10 07:02:13;;;;;;;10.88;3.67;;;;;;;5.86;67.47;101112.50;5069012;28;20044;-73
2022/04/10 07:04:39;;;;;;;7.35;2.25;;;;;;;6.19;65.91;101125.50;5068514;28;20048;-73
2022/04/10 07:07:07;;;;;;;7.88;2.25;;;;;;;6.43;65.49;101110.94;5068606;28;20098;-73
2022/04/10 07:09:33;;;;;;;8.25;2.40;;;;;;;6.64;64.82;101123.34;5064758;28;20041;-73
2022/04/10 07:12:00;;;;;;;11.65;2.75;;;;;;;6.88;64.81;101119.97;5065916;28;20052;-71
2022/04/10 07:14:26;;;;;;;6.03;2.35;;;;;;;6.75;64.73;101127.34;5066455;28;20072;-71
2022/04/10 07:16:52;;;;;;;4.88;2.15;;;;;;;6.39;66.19;101128.41;5061917;28;20493;-71
2022/04/10 07:19:18;;;;;;;7.50;3.17;;;;;;;6.88;65.48;101119.97;5068176;28;20121;-71
2022/04/10 07:24:30;;;;;;;6.35;2.67;;;;;;;8.98;59.91;101124.00;5069851;28;20071;-71
2022/04/10 07:26:57;;;;;;;7.57;2.92;;;;;;;9.37;59.27;101132.03;5069522;28;20052;-71
2022/04/10 07:29:23;;;;;;;10.32;2.75;;;;;;;8.90;58.13;101134.75;5063264;28;20630;-71
2022/04/10 07:31:50;;;;;;;5.53;2.45;;;;;;;8.87;58.64;101136.63;5068749;28;20489;-71
2022/04/10 07:34:16;;;;;;;14.50;4.18;;;;;;;8.85;58.41;101141.91;5067697;28;20493;-71
2022/04/10 07:36:43;;;;;;;12.88;3.05;;;;;;;9.19;57.66;101136.22;5065278;28;20087;-71
2022/04/10 07:39:09;;;;;;;7.45;3.10;;;;;;;9.28;58.07;101141.09;5067382;28;20057;-71
2022/04/10 07:41:37;;;;;;;6.60;2.20;;;;;;;8.69;59.27;101127.72;5069161;28;20048;-72
2022/04/10 07:44:04;;;;;;;11.48;3.47;;;;;;;8.37;61.02;101139.38;5068869;28;20060;-72
2022/04/10 07:49:14;;;;;;;14.75;3.72;;;;;;;8.93;60.63;101141.63;5067864;28;20064;-72
2022/04/10 07:51:40;;;;;;;12.27;2.92;;;;;;;9.03;58.18;101141.22;5068428;28;20417;-72
2022/04/10 07:54:06;;;;;;;9.73;3.08;;;;;;;8.88;58.98;101140.94;5068533;28;20045;-71
2022/04/10 07:56:33;;;;;;;5.97;2.63;;;;;;;8.63;59.56;101154.94;5064486;28;20090;-73
2022/04/10 07:59:00;;;;;;;22.25;3.90;;;;;;;8.65;60.71;101149.63;5067288;28;20709;-72
2022/04/10 08:01:27;;;;;;;15.57;3.42;;;;;;;8.89;59.34;101158.34;5067815;28;20048;-71
2022/04/10 08:03:53;;;;;;;11.65;3.55;;;;;;;8.70;59.12;101161.66;5067841;28;20078;-71
2022/04/10 08:06:19;;;;;;;11.82;3.08;;;;;;;8.87;58.48;101165.41;5067914;28;20129;-71
2022/04/10 08:08:46;;;;;;;7.13;2.47;;;;;;;8.55;58.26;101151.75;5067444;28;20049;-72
2022/04/10 08:11:12;;;;;;;7.60;2.47;;;;;;;8.45;59.17;101163.47;5066956;28;20045;-72
2022/04/10 08:13:39;;;;;;;13.90;2.72;;;;;;;8.50;58.64;101171.16;5068573;28;20045;-72
2022/04/10 08:16:08;;;;;;;13.65;2.83;;;;;;;8.44;58.88;101161.75;5068395;28;20040;-73
2022/04/10 08:18:34;;;;;;;10.75;3.72;;;;;;;8.45;57.88;101171.31;5068106;28;20044;-72
2022/04/10 08:21:01;;;;;;;6.85;2.47;;;;;;;9.00;56.69;101174.47;5067136;28;20072;-73
2022/04/10 08:23:28;;;;;;;14.02;2.88;;;;;;;9.13;56.66;101167.84;5068814;28;20040;-71
2022/04/10 08:25:54;;;;;;;10.90;2.85;;;;;;;8.99;55.43;101183.22;5067766;28;20048;-71
2022/04/10 08:28:21;;;;;;;9.20;2.58;;;;;;;8.66;56.84;101185.34;5067283;28;20052;-71
2022/04/10 08:30:47;;;;;;;10.68;2.85;;;;;;;8.91;56.41;101187.88;5066391;28;20131;-71
2022/04/10 08:33:15;;;;;;;7.13;2.20;;;;;;;8.82;57.79;101193.47;5067865;28;20048;-71
2022/04/10 08:35:41;;;;;;;10.82;2.72;;;;;;;8.54;56.87;101181.41;5068341;28;20458;-71
2022/04/10 08:38:07;;;;;;;10.77;3.20;;;;;;;8.88;56.71;101180.16;5064656;28;20098;-71
2022/04/10 08:40:34;;;;;;;14.88;2.80;;;;;;;8.97;56.67;101182.44;5065700;28;20393;-71
2022/04/10 08:43:02;;;;;;;13.55;2.85;;;;;;;8.70;56.59;101189.53;5067225;28;20415;-71
2022/04/10 08:45:29;;;;;;;15.10;3.50;;;;;;;9.38;57.42;101181.69;5067733;28;20064;-71
2022/04/10 08:47:56;;;;;;;9.80;2.20;;;;;;;9.79;53.42;101196.56;5068057;28;20036;-71
2022/04/10 08:50:26;;;;;;;5.55;2.10;;;;;;;9.06;54.46;101184.69;5067525;28;20048;-70
2022/04/10 08:52:54;;;;;;;10.32;3.03;;;;;;;9.09;52.53;101181.97;5068588;28;20036;-71
2022/04/10 08:55:20;;;;;;;7.38;2.40;;;;;;;10.02;53.85;101197.38;5067733;28;20053;-72
2022/04/10 08:57:47;;;;;;;8.27;2.55;;;;;;;10.10;51.31;101185.66;5064462;28;20044;-72
2022/04/10 09:00:15;;;;;;;5.32;2.15;;;;;;;10.02;50.76;101186.88;5067184;28;20416;-72
2022/04/10 09:02:47;;;;;;;6.88;2.30;;;;;;;9.79;52.14;101193.94;5066833;28;20114;-72
2022/04/10 09:05:16;;;;;;;12.45;2.17;;;;;;;9.90;52.11;101204.00;5067514;28;20048;-72
2022/04/10 09:08:06;;;;;;;9.02;2.38;;;;;;;10.00;52.12;101200.06;5063686;28;20106;-71
2022/04/10 09:10:52;;;;;;;11.57;2.47;;;;;;;10.18;51.49;101204.56;5067386;28;20042;-71
2022/04/10 09:13:24;;;;;;;10.07;3.20;;;;;;;10.41;52.41;101198.34;5066876;28;21167;-73
2022/04/10 09:15:50;;;;;;;12.18;3.25;;;;;;;11.30;50.81;101193.38;5066234;28;20064;-72
2022/04/10 09:18:16;;;;;;;11.80;4.03;;;;;;;11.82;47.83;101193.50;5066564;28;20094;-68
2022/04/10 09:20:43;;;;;;;10.35;3.40;;;;;;;11.53;46.22;101187.03;5063843;28;20048;-69
2022/04/10 09:23:11;;;;;;;6.97;2.30;;;;;;;11.01;46.73;101201.75;5068121;28;20048;-69
2022/04/10 09:25:43;;;;;;;9.18;2.65;;;;;;;10.48;49.08;101198.91;5066291;28;20119;-69
2022/04/10 09:28:09;;;;;;;5.93;2.38;;;;;;;9.93;48.68;101201.25;5064343;28;20071;-68
2022/04/10 09:30:36;;;;;;;6.82;2.40;;;;;;;9.97;50.21;101194.13;5066247;28;20060;-68
2022/04/10 09:33:03;;;;;;;7.00;2.13;;;;;;;10.58;51.06;101190.56;5067414;28;20109;-68
2022/04/10 09:35:43;;;;;;;8.77;2.00;;;;;;;10.55;47.64;101193.34;5064358;28;20052;-68
2022/04/10 09:38:11;;;;;;;4.25;1.88;;;;;;;10.50;47.47;101184.81;5067272;28;20044;-68
2022/04/10 09:40:38;;;;;;;5.53;1.90;;;;;;;10.35;47.80;101200.38;5066695;28;20044;-69
2022/04/10 09:43:06;;;;;;;4.28;2.00;;;;;;;9.92;47.57;101196.06;5064409;28;20087;-68
2022/04/10 09:45:35;;;;;;;9.38;2.42;;;;;;;10.08;49.00;101199.75;5067467;28;20045;-68
2022/04/10 09:48:20;;;;;;;5.90;1.83;;;;;;;9.82;49.60;101199.97;5067118;28;20044;-68
2022/04/10 09:50:47;;;;;;;6.20;1.98;;;;;;;9.82;48.80;101199.97;5060466;28;20049;-68
2022/04/10 09:53:15;;;;;;;9.07;2.25;;;;;;;10.03;47.91;101194.69;5064877;28;20082;-68
2022/04/10 09:55:43;;;;;;;6.57;1.73;;;;;;;9.85;48.16;101203.31;5070330;28;20427;-68
2022/04/10 09:58:13;;;;;;;4.68;1.77;;;;;;;10.22;46.67;101200.03;5068558;28;20676;-68
2022/04/10 10:00:41;;;;;;;5.05;1.60;;;;;;;9.55;46.83;101202.81;5070905;28;20504;-68
2022/04/10 10:03:09;;;;;;;6.88;2.15;;;;;;;9.73;48.26;101202.06;5071142;28;20110;-68
2022/04/10 10:05:36;;;;;;;3.92;1.60;;;;;;;9.52;48.70;101200.31;5071558;28;20092;-68
2022/04/10 10:08:03;;;;;;;13.38;2.30;;;;;;;9.66;49.52;101194.50;5070059;28;20749;-68
2022/04/10 10:10:33;;;;;;;7.13;2.15;;;;;;;9.86;46.58;101191.94;5067890;28;20064;-68
2022/04/10 10:13:00;;;;;;;4.78;1.60;;;;;;;9.51;46.45;101192.50;5070643;28;20094;-68
2022/04/10 10:15:27;;;;;;;8.88;1.88;;;;;;;9.92;49.14;101193.44;5071286;28;20045;-68
2022/04/10 10:17:54;;;;;;;8.93;1.92;;;;;;;9.93;48.33;101201.25;5072259;28;20507;-68
2022/04/10 10:20:22;;;;;;;8.82;2.30;;;;;;;10.09;47.76;101193.56;5069798;28;20076;-68
2022/04/10 10:22:48;;;;;;;3.75;1.33;;;;;;;9.87;47.16;101204.09;5069974;28;20050;-68
2022/04/10 10:25:19;;;;;;;6.72;2.08;;;;;;;10.13;46.79;101203.00;5069969;28;20056;-68
2022/04/10 10:28:19;;;;;;;6.00;1.90;;;;;;;10.02;46.30;101198.22;5070315;28;20106;-68
2022/04/10 10:30:58;;;;;;;9.30;2.85;;;;;;;10.14;47.36;101209.97;5049477;28;20033;-68
2022/04/10 10:33:27;;;;;;;7.95;2.10;;;;;;;9.69;49.10;101217.94;5056210;28;20068;-68
2022/04/10 10:35:57;;;;;;;7.05;2.38;;;;;;;9.47;51.87;101204.88;5068843;28;20121;-68
2022/04/10 10:38:26;;;;;;;8.20;2.35;;;;;;;9.32;53.05;101210.72;5069164;28;20294;-68
2022/04/10 10:40:54;;;;;;;4.07;1.38;;;;;;;9.46;49.79;101194.47;5069996;28;20701;-68
2022/04/10 10:43:24;;;;;;;6.70;1.80;;;;;;;9.34;50.21;101195.81;5069391;28;20080;-68
2022/04/10 10:45:53;;;;;;;6.38;1.88;;;;;;;9.86;49.33;101209.41;5070796;28;20525;-68
2022/04/10 10:48:42;;;;;;;13.75;2.67;;;;;;;10.67;47.77;101192.78;5069244;28;20040;-68
2022/04/10 10:51:42;;;;;;;6.25;1.80;;;;;;;10.75;48.39;101188.03;5065550;28;20048;-68
2022/04/10 10:54:11;;;;;;;4.70;1.83;;;;;;;10.93;46.96;101188.13;5069453;28;20068;-68
2022/04/10 10:56:39;;;;;;;8.80;1.92;;;;;;;10.90;47.00;101183.84;5070444;28;20401;-68
2022/04/10 10:59:25;;;;;;;6.18;1.70;;;;;;;10.69;49.50;101183.06;5070174;28;20098;-68
2022/04/10 11:01:53;;;;;;;4.07;1.55;;;;;;;10.33;49.25;101195.19;5069625;28;20401;-68
2022/04/10 11:04:21;;;;;;;3.50;1.10;;;;;;;10.14;49.52;101199.47;5069898;28;20048;-68
2022/04/10 11:06:48;;;;;;;2.63;1.13;;;;;;;9.92;48.28;101196.06;5069064;28;20066;-68
2022/04/10 11:09:21;;;;;;;6.97;2.30;;;;;;;9.91;50.68;101205.69;5069619;28;20040;-68
2022/04/10 11:11:48;;;;;;;4.30;1.73;;;;;;;10.81;50.40;101183.44;5070188;28;20051;-68
2022/04/10 11:14:38;;;;;;;6.22;1.55;;;;;;;11.82;48.37;101181.22;5069031;28;20050;-68
2022/04/10 11:17:08;;;;;;;4.20;1.52;;;;;;;11.59;45.60;101190.19;5070023;28;20106;-68
2022/04/10 11:19:36;;;;;;;5.10;1.60;;;;;;;11.30;45.75;101188.13;5069210;28;20054;-68
2022/04/10 11:22:03;;;;;;;6.22;1.77;;;;;;;10.77;47.53;101197.63;5070133;28;20052;-68
2022/04/10 11:24:30;;;;;;;4.45;1.40;;;;;;;10.30;50.77;101208.44;5069478;28;20060;-68
2022/04/10 11:26:56;;;;;;;6.00;1.17;;;;;;;8.92;56.15;101228.81;5069837;28;20036;-68
2022/04/10 11:29:22;;;;;;;5.45;1.33;;;;;;;8.11;62.31;101243.88;5066367;28;20044;-68
2022/04/10 11:31:54;;;;;;;4.47;1.50;;;;;;;7.61;64.40;101230.69;5068887;28;20505;-71
2022/04/10 11:34:22;;;;;;;4.43;1.90;;;;;;;7.39;66.59;101229.66;5066892;28;20547;-70
2022/04/10 11:36:53;;;;;;;10.30;2.58;;;;;;;7.93;68.07;101224.47;5069493;28;20509;-69